Latest Weather Observations for Dum In Mirrie

IDD60901

Issued at 9:51 am CST Monday 26 January 2015 (issued every 10 minutes, with the page automatically refreshed every 10 minutes)

About weather observations | Map of Darwin area stations | Latest observations for Darwin area | Other Formats
Station Details ID: 014277 Name: DUM IN MIRRIE AIRSTRIP Lat: -12.63 Lon: 130.37 Height: 3.5 m
Data from the previous 72 hours. | See also: Recent months at Dum In Mirrie
Date/Time
CST
Tmp

°C
App
Tmp
°C
Dew
Point
°C
Rel
Hum
%
Delta-T

°C
Wind Press
QNH
hPa
Press
MSL
hPa
Rain
since
9 am
mm
Dir
 
Spd
km/h
Gust
km/h
Spd
kts
Gust
kts
26/09:30am 30.1 34.4 26.1 79 2.9 W 15 24 8 13 1008.7 1008.7 0.2
26/09:00am 30.0 35.3 26.4 81 2.6 WNW 11 19 6 10 1008.6 1008.6 0.4
26/08:30am 29.7 34.8 26.1 81 2.6 WNW 11 19 6 10 1008.8 1008.8 0.4
26/08:00am 29.4 34.5 26.2 83 2.3 WNW 11 19 6 10 1008.4 1008.4 0.4
26/07:30am 28.7 34.4 25.9 85 2.0 WNW 7 17 4 9 1008.1 1008.1 0.4
26/07:00am 28.5 34.1 25.7 85 2.0 WNW 7 15 4 8 1008.0 1008.0 0.4
26/06:30am 28.3 33.4 25.5 85 2.0 WNW 9 15 5 8 1008.0 1008.0 0.4
26/06:00am 28.4 33.1 25.6 85 2.0 W 11 17 6 9 1008.0 1008.0 0.4
26/05:30am 28.0 33.3 25.8 88 1.6 WNW 9 15 5 8 1007.6 1007.6 0.4
26/05:00am 27.7 31.9 24.1 81 2.5 W 9 17 5 9 1007.2 1007.2 0.4
26/04:30am 27.4 32.6 24.8 86 1.8 WNW 6 11 3 6 1007.1 1007.1 0.4
26/04:00am 27.4 29.3 23.4 79 2.7 W 19 32 10 17 1007.1 1007.1 0.4
26/03:30am 28.6 34.6 26.0 86 1.8 W 6 9 3 5 1006.9 1006.9 0.0
26/03:00am 28.5 34.3 25.7 85 2.0 W 6 13 3 7 1007.0 1007.0 0.0
26/02:30am 28.6 34.3 25.6 84 2.1 W 6 9 3 5 1007.1 1007.1 0.0
26/02:00am 28.8 33.9 25.6 83 2.3 W 9 15 5 8 1007.6 1007.6 0.0
26/01:30am 28.7 34.1 25.5 83 2.3 W 7 15 4 8 1007.8 1007.8 0.0
26/01:00am 28.8 33.4 25.4 82 2.4 W 11 19 6 10 1008.1 1008.1 0.0
26/12:30am 29.0 34.1 25.6 82 2.4 W 9 17 5 9 1008.6 1008.6 0.0
26/12:00am 29.1 34.3 25.7 82 2.4 W 9 13 5 7 1008.9 1008.9 0.0
 
Date/Time
CST
Tmp

°C
App
Tmp
°C
Dew
Point
°C
Rel
Hum
%
Delta-T

°C
Wind Press
QNH
hPa
Press
MSL
hPa
Rain
since
9 am
mm
Dir
 
Spd
km/h
Gust
km/h
Spd
kts
Gust
kts
25/11:30pm 28.9 33.8 25.3 81 2.5 W 9 15 5 8 1008.9 1008.9 0.0
25/11:00pm 29.2 33.6 25.6 81 2.5 W 13 22 7 12 1008.8 1008.8 0.0
25/10:30pm 29.3 33.0 25.7 81 2.6 W 17 26 9 14 1008.9 1008.9 0.0
25/10:00pm 29.2 33.7 25.8 82 2.4 W 13 20 7 11 1008.5 1008.5 0.0
25/09:30pm 29.4 33.1 25.8 81 2.6 W 17 28 9 15 1008.7 1008.7 0.0
25/09:00pm 29.2 34.6 26.0 83 2.3 W 9 15 5 8 1008.4 1008.4 0.0
25/08:30pm 29.1 33.7 25.3 80 2.7 W 11 19 6 10 1008.3 1008.3 0.0
25/08:00pm 29.1 34.2 26.1 84 2.1 W 11 17 6 9 1008.2 1008.2 0.0
25/07:30pm 29.1 34.6 26.1 84 2.1 WNW 9 15 5 8 1007.8 1007.8 0.0
25/07:00pm 29.2 34.5 25.8 82 2.4 W 9 15 5 8 1007.2 1007.2 0.0
25/06:30pm 29.5 34.7 25.7 80 2.7 W 9 17 5 9 1007.0 1007.0 0.0
25/06:00pm 29.5 33.6 25.7 80 2.7 W 15 24 8 13 1006.7 1006.7 0.0
25/05:30pm 29.5 34.6 25.5 79 2.8 WNW 9 17 5 9 1006.7 1006.7 0.0
25/05:00pm 29.7 34.5 26.3 82 2.4 W 13 20 7 11 1006.2 1006.2 0.0
25/04:30pm 30.1 34.7 26.5 81 2.6 W 15 22 8 12 1006.5 1006.5 0.0
25/04:00pm 30.6 34.7 26.3 78 3.1 WSW 17 26 9 14 1006.7 1006.7 0.0
25/03:30pm 32.0 37.2 26.8 74 3.8 W 13 26 7 14 1006.9 1006.9 0.0
25/03:00pm 30.8 35.5 26.1 76 3.4 W 13 26 7 14 1007.3 1007.3 0.0
25/02:30pm 31.8 36.4 26.6 74 3.7 W 15 24 8 13 1007.9 1007.9 0.0
25/02:00pm 31.7 35.9 26.0 72 4.1 W 15 26 8 14 1007.9 1007.9 0.0
25/01:30pm 31.7 36.9 26.9 76 3.5 W 13 22 7 12 1008.3 1008.3 0.0
25/01:00pm 31.6 36.9 26.4 74 3.7 W 11 20 6 11 1008.7 1008.7 0.0
25/12:30pm 31.3 36.1 26.3 75 3.6 W 13 22 7 12 1008.9 1008.9 0.0
25/12:00pm 31.2 36.0 26.2 75 3.6 WNW 13 22 7 12 1009.1 1009.1 0.0
25/11:30am 31.3 36.1 26.3 75 3.6 W 13 20 7 11 1009.5 1009.5 0.0
25/11:00am 31.6 37.5 26.8 75 3.5 WNW 9 17 5 9 1010.1 1010.1 0.0
25/10:30am 30.8 35.3 25.8 74 3.6 W 13 20 7 11 1010.2 1010.2 0.0
25/10:00am 30.7 35.8 26.2 77 3.2 W 11 20 6 11 1010.0 1010.0 0.0
25/09:30am 30.7 35.8 26.2 77 3.2 W 11 17 6 9 1010.0 1010.0 0.0
25/09:00am 30.3 35.7 26.0 78 3.1 W 9 17 5 9 1009.7 1009.7 12.6
25/08:30am 29.8 34.7 25.8 79 2.8 W 11 20 6 11 1009.2 1009.2 12.6
25/08:00am 29.4 34.1 25.6 80 2.7 WNW 11 17 6 9 1008.6 1008.6 12.4
25/07:30am 29.2 35.0 26.0 83 2.3 WNW 7 15 4 8 1008.4 1008.4 12.4
25/07:00am 28.5 33.6 25.5 84 2.1 WNW 9 17 5 9 1008.0 1008.0 12.4
25/06:30am 28.4 33.0 25.4 84 2.1 WNW 11 20 6 11 1007.6 1007.6 12.4
25/06:00am 28.3 33.4 25.5 85 2.0 WNW 9 17 5 9 1007.1 1007.1 12.4
25/05:30am 28.3 33.4 25.5 85 2.0 WNW 9 17 5 9 1007.1 1007.1 12.4
25/05:00am 28.4 33.7 25.8 86 1.8 WNW 9 19 5 10 1007.2 1007.2 12.4
25/04:30am 28.3 33.9 25.7 86 1.8 WNW 7 13 4 7 1007.4 1007.4 12.4
25/04:00am 28.4 34.4 26.0 87 1.7 WNW 6 11 3 6 1007.4 1007.4 12.4
25/03:30am 28.5 34.1 25.7 85 2.0 WNW 7 13 4 7 1007.2 1007.2 12.4
25/03:00am 28.6 34.0 26.0 86 1.8 WNW 9 15 5 8 1007.2 1007.2 12.4
25/02:30am 28.6 34.0 26.0 86 1.8 WNW 9 17 5 9 1007.3 1007.3 12.4
25/02:00am 28.6 34.0 26.0 86 1.8 WNW 9 19 5 10 1007.2 1007.2 12.4
25/01:30am 28.7 34.3 26.3 87 1.7 WNW 9 17 5 9 1007.3 1007.3 12.4
25/01:00am 28.6 34.6 26.4 88 1.6 WNW 7 15 4 8 1007.8 1007.8 12.4
25/12:30am 28.6 34.3 26.4 88 1.6 WNW 9 15 5 8 1008.2 1008.2 12.4
25/12:00am 28.3 33.9 25.5 85 2.0 NW 6 13 3 7 1008.7 1008.7 12.4
 
Date/Time
CST
Tmp

°C
App
Tmp
°C
Dew
Point
°C
Rel
Hum
%
Delta-T

°C
Wind Press
QNH
hPa
Press
MSL
hPa
Rain
since
9 am
mm
Dir
 
Spd
km/h
Gust
km/h
Spd
kts
Gust
kts
24/11:30pm 28.3 33.4 24.7 81 2.5 NW 6 13 3 7 1008.7 1008.7 12.4
24/11:00pm 28.3 32.9 24.1 78 2.9 NW 7 13 4 7 1009.0 1009.0 12.4
24/10:30pm 28.5 31.8 23.2 73 3.6 WNW 11 19 6 10 1008.5 1008.5 12.4
24/10:00pm 28.6 33.1 24.6 79 2.8 W 9 19 5 10 1008.4 1008.4 12.4
24/09:30pm 28.1 32.7 24.7 82 2.4 WNW 9 20 5 11 1008.0 1008.0 12.4
24/09:00pm 27.6 31.3 23.2 77 3.0 W 9 17 5 9 1007.7 1007.7 12.4
24/08:30pm 27.6 31.4 24.0 81 2.5 WNW 11 19 6 10 1007.7 1007.7 12.4
24/08:00pm 27.6 31.5 24.2 82 2.4 WNW 11 19 6 10 1007.4 1007.4 12.4
24/07:30pm 27.5 31.3 24.1 82 2.4 WNW 11 24 6 13 1007.1 1007.1 12.4
24/07:00pm 26.3 30.7 23.8 86 1.7 NW 7 15 4 8 1006.8 1006.8 12.4
24/06:30pm 26.6 30.9 23.7 84 2.0 NNW 7 13 4 7 1006.0 1006.0 12.4
24/06:00pm 25.7 27.9 22.6 83 2.1 WNW 15 30 8 16 1005.3 1005.3 12.4
24/05:30pm 25.1 27.3 23.9 93 0.8 W 19 30 10 16 1005.3 1005.3 12.4
24/05:00pm 23.6 26.6 22.6 94 0.7 NW 11 20 6 11 1005.9 1005.9 12.0
24/04:30pm 23.8 24.8 22.8 94 0.7 NNE 22 43 12 23 1006.1 1006.1 6.6
24/04:00pm 25.9 29.5 23.8 88 1.4 E 11 19 6 10 1006.4 1006.4 1.0
24/03:30pm 27.4 30.7 21.9 72 3.7 NW 7 19 4 10 1006.1 1006.1 0.0
24/03:00pm 29.7 35.4 26.5 83 2.3 W 9 17 5 9 1005.6 1005.6 0.0
24/02:30pm 30.4 35.9 26.8 81 2.6 W 11 20 6 11 1005.9 1005.9 0.0
24/02:00pm 30.5 35.6 26.7 80 2.7 W 13 26 7 14 1005.8 1005.8 0.0
24/01:30pm 30.9 34.9 26.8 79 3.0 W 19 30 10 16 1006.0 1006.0 0.0
24/01:00pm 31.1 35.1 26.8 78 3.1 W 19 30 10 16 1006.0 1006.0 0.0
24/12:30pm 31.5 36.6 27.2 78 3.1 W 15 24 8 13 1006.4 1006.4 0.0
24/12:00pm 31.3 37.4 27.0 78 3.1 WSW 9 17 5 9 1006.8 1006.8 0.0
24/11:30am 31.4 37.8 26.9 77 3.2 WSW 7 15 4 8 1007.1 1007.1 0.0
24/11:00am 30.4 35.2 26.8 81 2.6 W 15 22 8 12 1007.4 1007.4 0.0
24/10:30am 30.8 36.8 26.9 80 2.8 WSW 9 20 5 11 1007.7 1007.7 0.0
24/10:00am 30.0 34.1 26.4 81 2.6 W 17 24 9 13 1007.6 1007.6 0.0
24/09:30am 30.0 34.1 26.4 81 2.6 WSW 17 26 9 14 1007.3 1007.3 0.0
24/09:00am 30.1 33.9 26.5 81 2.6 W 19 28 10 15 1007.1 1007.1 0.4
24/08:30am 29.4 33.9 26.4 84 2.1 WSW 15 26 8 14 1006.9 1006.9 0.4
24/08:00am 29.1 33.8 26.1 84 2.1 WSW 13 24 7 13 1006.5 1006.5 0.2
24/07:30am 29.1 32.9 26.5 86 1.9 W 19 28 10 15 1006.4 1006.4 0.2
24/07:00am 29.0 32.2 26.4 86 1.9 W 22 33 12 18 1005.9 1005.9 0.2
24/06:30am 28.9 32.3 26.1 85 2.0 WSW 20 32 11 17 1005.4 1005.4 0.2
24/06:00am 28.9 32.0 26.3 86 1.9 W 22 32 12 17 1005.2 1005.2 0.2
24/05:30am 28.9 31.6 26.3 86 1.9 W 24 33 13 18 1005.1 1005.1 0.2
24/05:00am 28.8 31.3 26.0 85 2.0 W 24 39 13 21 1004.9 1004.9 0.2
24/04:30am 28.9 30.9 26.3 86 1.9 W 28 35 15 19 1004.5 1004.5 0.2
24/04:00am 28.8 31.8 26.2 86 1.8 W 22 33 12 18 1004.5 1004.5 0.2
24/03:30am 28.7 32.4 26.3 87 1.7 W 19 28 10 15 1004.6 1004.6 0.2
24/03:00am 28.8 32.8 26.2 86 1.9 W 17 28 9 15 1005.0 1005.0 0.2
24/02:30am 28.7 33.0 26.1 86 1.9 W 15 24 8 13 1005.3 1005.3 0.2
24/02:00am 28.7 33.4 26.1 86 1.8 W 13 30 7 16 1005.6 1005.6 0.2
24/01:30am 28.8 31.5 26.2 86 1.9 W 24 32 13 17 1005.8 1005.8 0.2
24/01:00am 28.8 33.2 26.2 86 1.8 W 15 28 8 15 1006.0 1006.0 0.2
24/12:30am 28.9 32.9 26.7 88 1.6 W 19 30 10 16 1006.2 1006.2 0.2
24/12:00am 29.0 34.2 26.8 88 1.6 W 13 22 7 12 1006.6 1006.6 0.2
 
Date/Time
CST
Tmp

°C
App
Tmp
°C
Dew
Point
°C
Rel
Hum
%
Delta-T

°C
Wind Press
QNH
hPa
Press
MSL
hPa
Rain
since
9 am
mm
Dir
 
Spd
km/h
Gust
km/h
Spd
kts
Gust
kts
23/11:30pm 29.0 33.8 26.8 88 1.6 W 15 24 8 13 1006.4 1006.4 0.2
23/11:00pm 29.0 33.3 26.6 87 1.7 W 17 28 9 15 1006.1 1006.1 0.2
23/10:30pm 29.0 32.9 26.6 87 1.7 W 19 28 10 15 1006.1 1006.1 0.2
23/10:00pm 28.9 33.0 26.3 86 1.9 W 17 26 9 14 1005.6 1005.6 0.2
23/09:30pm 28.9 33.3 26.3 86 1.9 W 15 26 8 14 1005.5 1005.5 0.2
23/09:00pm 29.0 34.0 26.6 87 1.7 W 13 20 7 11 1005.6 1005.6 0.2
23/08:30pm 29.0 34.0 26.6 87 1.7 W 13 22 7 12 1005.6 1005.6 0.2
23/08:00pm 29.0 33.5 26.4 86 1.9 W 15 22 8 12 1005.5 1005.5 0.2
23/07:30pm 28.9 33.3 26.3 86 1.9 W 15 26 8 14 1005.4 1005.4 0.2
23/07:00pm 29.0 34.3 26.4 86 1.9 W 11 20 6 11 1005.3 1005.3 0.2
23/06:30pm 29.1 33.2 26.3 85 2.0 W 17 30 9 16 1004.7 1004.7 0.2
23/06:00pm 29.1 32.9 26.5 86 1.9 W 19 33 10 18 1004.3 1004.3 0.2
23/05:30pm 28.9 32.0 26.3 86 1.9 W 22 33 12 18 1003.7 1003.7 0.2
23/05:00pm 29.0 32.7 26.6 87 1.7 W 20 30 11 16 1003.6 1003.6 0.2
23/04:30pm 28.5 33.3 26.3 88 1.6 W 13 26 7 14 1003.4 1003.4 0.2
23/04:00pm 28.3 32.0 25.7 86 1.8 W 17 37 9 20 1003.4 1003.4 0.2
23/03:30pm 27.9 31.2 25.1 85 2.0 W 17 28 9 15 1003.6 1003.6 0.2
23/03:00pm 27.6 28.9 24.6 84 2.1 W 26 35 14 19 1003.0 1003.0 0.2
23/02:30pm 27.5 30.1 25.5 89 1.4 W 22 37 12 20 1003.3 1003.3 0.2
23/02:00pm 28.3 31.8 26.3 89 1.4 W 20 33 11 18 1004.3 1004.3 0.2
23/01:30pm 28.4 31.4 24.6 80 2.7 WSW 17 33 9 18 1004.2 1004.2 0.2
23/01:00pm 29.3 32.9 26.1 83 2.3 W 19 33 10 18 1004.9 1004.9 0.2
23/12:30pm 29.6 31.4 26.0 81 2.6 W 28 41 15 22 1005.3 1005.3 0.0
23/12:00pm 29.5 31.5 25.7 80 2.7 W 26 41 14 22 1005.1 1005.1 0.0
23/11:30am 28.9 32.4 26.3 86 1.9 W 20 35 11 19 1005.2 1005.2 0.0
23/11:00am 28.2 32.3 26.4 90 1.3 W 17 30 9 16 1005.2 1005.2 0.0
23/10:30am 26.9 31.5 25.3 91 1.1 WNW 11 22 6 12 1006.0 1006.0 0.0
23/10:00am 26.0 30.0 24.4 91 1.1 NW 11 20 6 11 1006.6 1006.6 0.0

Latest Capital City Observations: Canberra | Sydney | Melbourne | Brisbane | Adelaide | Perth | Hobart | Darwin

Other Formats:

Comma delimited format used in spreadsheet applications
http://www.bom.gov.au/fwo/IDD60901/IDD60901.94116.axf

JavaScript Object Notation format (JSON) in row-major order
http://www.bom.gov.au/fwo/IDD60901/IDD60901.94116.json